createdAt,value
2022-12-07T00:01:49.983Z,7.50
2022-12-07T00:04:21.938Z,7.53
2022-12-07T00:06:54.907Z,7.53
2022-12-07T00:09:24.306Z,7.83
2022-12-07T00:11:54.097Z,8.70
2022-12-07T00:14:24.459Z,7.53
2022-12-07T00:16:54.653Z,7.70
2022-12-07T00:19:23.466Z,7.73
2022-12-07T00:21:52.201Z,8.30
2022-12-07T00:24:20.931Z,7.23
2022-12-07T00:26:49.731Z,7.53
2022-12-07T00:29:21.748Z,7.67
2022-12-07T00:31:52.110Z,7.60
2022-12-07T00:34:23.921Z,8.10
2022-12-07T00:36:52.965Z,8.30
2022-12-07T00:39:21.685Z,7.80
2022-12-07T00:41:50.470Z,8.10
2022-12-07T00:44:19.176Z,8.77
2022-12-07T00:46:47.948Z,9.07
2022-12-07T00:49:18.092Z,8.50
2022-12-07T00:51:46.931Z,8.30
2022-12-07T00:54:15.643Z,8.60
2022-12-07T00:56:44.378Z,8.70
2022-12-07T00:59:16.374Z,8.23
2022-12-07T01:01:45.254Z,8.30
2022-12-07T01:04:14.025Z,9.03
2022-12-07T01:06:44.217Z,7.90
2022-12-07T01:09:12.953Z,7.63
2022-12-07T01:11:41.680Z,7.70
2022-12-07T01:14:11.923Z,7.87
2022-12-07T01:16:42.322Z,7.60
2022-12-07T01:19:11.093Z,7.40
2022-12-07T01:21:43.163Z,6.83
2022-12-07T01:24:13.751Z,8.30
2022-12-07T01:26:42.605Z,7.53
2022-12-07T01:29:11.415Z,7.43
2022-12-07T01:31:40.134Z,7.60
2022-12-07T01:34:08.905Z,7.33
2022-12-07T01:36:38.916Z,7.83
2022-12-07T01:39:12.165Z,8.17
2022-12-07T01:41:44.659Z,7.90
2022-12-07T01:44:21.967Z,7.57
2022-12-07T01:46:52.681Z,7.73
2022-12-07T01:49:34.058Z,7.10
2022-12-07T01:52:17.923Z,6.60
2022-12-07T01:54:52.255Z,6.50
2022-12-07T01:57:23.001Z,5.40
2022-12-07T01:59:53.903Z,6.10
2022-12-07T02:02:28.625Z,6.70
2022-12-07T02:05:01.221Z,6.20
2022-12-07T02:07:33.302Z,6.97
2022-12-07T02:10:18.061Z,5.77
2022-12-07T02:12:51.055Z,6.50
2022-12-07T02:15:23.322Z,6.60
2022-12-07T02:18:03.561Z,5.90
2022-12-07T02:20:35.810Z,6.07
2022-12-07T02:23:43.929Z,8.23
2022-12-07T02:26:47.043Z,6.80
2022-12-07T02:29:26.737Z,7.93
2022-12-07T02:32:08.853Z,8.07
2022-12-07T02:34:49.829Z,8.83
2022-12-07T02:37:38.098Z,9.00
2022-12-07T02:40:16.976Z,8.97
2022-12-07T02:42:53.263Z,9.10
2022-12-07T02:45:31.873Z,9.67
2022-12-07T02:48:04.552Z,9.63
2022-12-07T02:50:33.349Z,9.43
2022-12-07T02:53:02.197Z,10.00
2022-12-07T02:55:39.252Z,10.47
2022-12-07T02:58:35.380Z,10.63
2022-12-07T03:01:25.302Z,10.83
2022-12-07T03:04:12.198Z,9.93
2022-12-07T03:06:53.935Z,10.70
2022-12-07T03:09:32.369Z,10.40
2022-12-07T03:12:12.363Z,10.07
2022-12-07T03:14:50.556Z,10.70
2022-12-07T03:17:26.759Z,9.67
2022-12-07T03:20:24.959Z,9.47
2022-12-07T03:22:56.398Z,9.67
2022-12-07T03:25:26.189Z,9.90
2022-12-07T03:27:59.809Z,9.90
2022-12-07T03:30:35.225Z,8.93
2022-12-07T03:33:13.641Z,9.13
2022-12-07T03:35:47.911Z,8.97
2022-12-07T03:38:24.234Z,9.60
2022-12-07T03:41:02.629Z,9.47
2022-12-07T03:47:54.505Z,9.30
2022-12-07T03:50:38.091Z,8.53
2022-12-07T03:53:16.301Z,8.83
2022-12-07T03:55:49.558Z,9.57
2022-12-07T03:58:22.785Z,8.60
2022-12-07T04:00:53.135Z,9.47
2022-12-07T04:03:22.040Z,9.17
2022-12-07T04:05:52.469Z,9.90
2022-12-07T04:08:21.474Z,9.13
2022-12-07T04:11:21.642Z,9.03
2022-12-07T04:14:08.001Z,9.00
2022-12-07T04:18:09.539Z,7.80
2022-12-07T04:20:38.309Z,8.43
2022-12-07T04:23:08.505Z,8.67
2022-12-07T04:25:37.341Z,8.73
2022-12-07T04:28:06.639Z,8.33
2022-12-07T04:30:35.492Z,9.30
2022-12-07T04:33:04.377Z,9.37
2022-12-07T04:35:33.171Z,8.83
2022-12-07T04:38:02.024Z,7.63
2022-12-07T04:40:32.218Z,8.37
2022-12-07T04:43:00.990Z,7.70
2022-12-07T04:45:29.787Z,7.80
2022-12-07T04:47:58.508Z,8.10
2022-12-07T04:50:27.294Z,7.93
2022-12-07T04:52:56.027Z,8.40
2022-12-07T04:55:24.839Z,7.53
2022-12-07T04:57:55.148Z,8.03
2022-12-07T05:00:23.979Z,7.57
2022-12-07T06:12:25.293Z,5.60
2022-12-07T06:14:52.839Z,5.63
2022-12-07T06:17:20.275Z,5.90
2022-12-07T06:19:47.760Z,5.30
2022-12-07T06:22:16.435Z,5.60
2022-12-07T06:24:46.089Z,5.00
2022-12-07T06:27:16.586Z,4.80
2022-12-07T06:29:45.540Z,5.13
2022-12-07T06:32:14.372Z,5.23
2022-12-07T06:34:43.148Z,4.97
2022-12-07T06:37:11.864Z,5.03
2022-12-07T06:39:40.619Z,4.80
2022-12-07T06:42:09.390Z,5.20
2022-12-07T06:44:39.537Z,5.20
2022-12-07T06:49:57.750Z,5.30
2022-12-07T06:52:26.511Z,4.90
2022-12-07T06:54:55.225Z,5.00
2022-12-07T06:57:23.997Z,4.87
2022-12-07T06:59:54.201Z,4.80
2022-12-07T07:02:22.980Z,4.97
2022-12-07T07:04:51.760Z,4.70
2022-12-07T07:07:20.504Z,4.67
2022-12-07T07:09:49.340Z,4.53
2022-12-07T07:12:18.076Z,4.90
2022-12-07T07:14:46.765Z,4.70
2022-12-07T07:17:16.974Z,5.07
2022-12-07T07:19:45.764Z,4.77
2022-12-07T07:22:14.495Z,4.87
2022-12-07T07:24:43.198Z,4.50
2022-12-07T07:27:11.901Z,5.13
2022-12-07T07:29:40.589Z,4.80
2022-12-07T07:32:09.722Z,4.90
2022-12-07T07:34:40.010Z,5.70
2022-12-07T07:37:08.809Z,5.30
2022-12-07T07:39:37.593Z,5.13
2022-12-07T07:42:07.020Z,4.30
2022-12-07T07:44:36.172Z,4.77
2022-12-07T07:47:05.276Z,5.13
2022-12-07T07:49:33.963Z,5.03
2022-12-07T07:52:04.634Z,5.83
2022-12-07T07:54:33.318Z,6.00
2022-12-07T07:57:02.095Z,6.33
2022-12-07T07:59:30.849Z,6.73
2022-12-07T08:01:59.732Z,7.30
2022-12-07T08:04:28.535Z,6.90
2022-12-07T08:06:57.401Z,7.33
2022-12-07T08:09:27.547Z,7.67
2022-12-07T08:11:56.293Z,7.83
2022-12-07T08:14:24.993Z,8.23
2022-12-07T08:16:53.792Z,8.33
2022-12-07T08:19:22.744Z,8.17
2022-12-07T08:21:51.756Z,8.53
2022-12-07T08:24:20.980Z,8.50
2022-12-07T08:26:51.621Z,8.30
2022-12-07T08:29:20.722Z,9.43
2022-12-07T08:31:49.543Z,8.00
2022-12-07T08:34:18.383Z,8.40
2022-12-07T08:36:47.104Z,8.57
2022-12-07T08:39:32.369Z,8.10
2022-12-07T08:42:02.928Z,8.03
2022-12-07T08:44:31.608Z,7.93
2022-12-07T08:47:06.213Z,8.10
2022-12-07T08:49:41.146Z,7.87
2022-12-07T08:52:10.140Z,8.33
2022-12-07T08:54:42.296Z,8.10
2022-12-07T08:57:13.719Z,8.17
2022-12-07T08:59:42.447Z,8.03
2022-12-07T09:02:11.321Z,7.87
2022-12-07T09:04:40.184Z,7.60
2022-12-07T09:07:09.131Z,7.43
2022-12-07T09:09:38.043Z,6.70
2022-12-07T09:12:07.351Z,7.23
2022-12-07T09:14:37.608Z,6.90
2022-12-07T09:17:11.429Z,7.53
2022-12-07T09:19:42.595Z,6.43
2022-12-07T09:22:11.970Z,6.70
2022-12-07T09:24:40.793Z,6.70
2022-12-07T09:27:09.496Z,6.47
2022-12-07T09:29:39.863Z,6.43
2022-12-07T09:32:11.747Z,6.17
2022-12-07T09:34:40.856Z,6.40
2022-12-07T09:37:09.713Z,6.40
2022-12-07T09:39:47.941Z,6.00
2022-12-07T09:42:31.623Z,5.97
2022-12-07T09:45:03.627Z,6.03
2022-12-07T09:47:35.079Z,5.60
2022-12-07T09:50:14.327Z,5.83
2022-12-07T09:52:44.746Z,5.73
2022-12-07T09:55:16.672Z,5.73
2022-12-07T09:57:46.045Z,5.73
2022-12-07T10:00:20.195Z,5.50
2022-12-07T10:02:56.100Z,5.07
2022-12-07T10:05:30.306Z,5.70
2022-12-07T10:07:59.133Z,5.30
2022-12-07T10:10:38.117Z,5.40
2022-12-07T10:13:11.129Z,5.67
2022-12-07T10:15:54.017Z,5.93
2022-12-07T10:18:33.004Z,5.60
2022-12-07T10:21:15.602Z,5.77
2022-12-07T10:24:01.886Z,6.07
2022-12-07T10:26:35.526Z,5.63
2022-12-07T10:29:17.870Z,5.63
2022-12-07T10:31:54.866Z,5.70
2022-12-07T10:34:27.151Z,5.80
2022-12-07T10:37:08.668Z,5.60
2022-12-07T10:39:45.203Z,5.80
2022-12-07T10:42:22.759Z,5.53
2022-12-07T10:45:11.267Z,5.70
2022-12-07T10:47:54.285Z,5.23
2022-12-07T10:51:01.907Z,5.60
2022-12-07T10:53:51.063Z,5.50
2022-12-07T10:57:01.547Z,4.83
2022-12-07T10:59:59.808Z,5.03
2022-12-07T11:03:16.530Z,5.20
2022-12-07T11:05:56.250Z,5.13
2022-12-07T11:08:46.208Z,5.33
2022-12-07T11:11:26.037Z,5.30
2022-12-07T11:14:05.712Z,5.50
2022-12-07T11:17:07.123Z,4.90
2022-12-07T11:20:03.893Z,5.73
2022-12-07T11:22:46.868Z,5.13
2022-12-07T11:25:32.869Z,5.63
2022-12-07T11:28:25.354Z,5.50
2022-12-07T11:31:12.663Z,5.63
2022-12-07T11:33:48.290Z,5.90
2022-12-07T11:36:43.256Z,6.10
2022-12-07T11:39:32.729Z,6.20
2022-12-07T11:42:11.267Z,5.80
2022-12-07T11:44:54.505Z,6.00
2022-12-07T11:47:33.235Z,5.50
2022-12-07T11:50:23.674Z,5.73
2022-12-07T11:53:01.215Z,5.77
2022-12-07T11:55:44.407Z,5.40
2022-12-07T11:58:44.506Z,5.67
2022-12-07T12:01:34.820Z,5.53
2022-12-07T12:04:23.404Z,6.47
2022-12-07T12:06:55.387Z,5.67
2022-12-07T12:09:41.051Z,5.40
2022-12-07T12:16:29.872Z,5.70
2022-12-07T12:19:21.995Z,5.70
2022-12-07T12:22:01.811Z,5.93
2022-12-07T12:24:37.661Z,6.37
2022-12-07T12:27:12.655Z,6.63
2022-12-07T12:29:44.878Z,8.90
2022-12-07T12:32:22.191Z,6.80
2022-12-07T12:35:22.349Z,6.80
2022-12-07T12:37:54.036Z,5.40
2022-12-07T12:40:50.765Z,6.33
2022-12-07T12:43:50.031Z,6.40
2022-12-07T12:46:54.184Z,4.40
2022-12-07T12:49:41.461Z,4.50
2022-12-07T12:52:52.828Z,4.00
2022-12-07T12:56:23.783Z,4.63
2022-12-07T12:59:26.587Z,4.57
2022-12-07T13:02:17.523Z,4.50
2022-12-07T13:04:57.604Z,4.90
2022-12-07T13:08:03.793Z,5.10
2022-12-07T13:10:46.679Z,5.10
2022-12-07T13:13:38.151Z,6.10
2022-12-07T13:16:42.827Z,5.40
2022-12-07T13:20:03.882Z,6.17
2022-12-07T13:23:01.441Z,5.93
2022-12-07T13:25:43.410Z,5.87
2022-12-07T13:28:20.101Z,5.70
2022-12-07T13:31:16.868Z,5.47
2022-12-07T13:33:48.744Z,5.40
2022-12-07T13:36:25.401Z,5.00
2022-12-07T13:38:59.032Z,4.53
2022-12-07T13:41:29.851Z,4.20
2022-12-07T13:44:11.807Z,4.70
2022-12-07T13:46:55.579Z,4.27
2022-12-07T13:49:28.473Z,4.10
2022-12-07T13:52:16.241Z,3.90
2022-12-07T13:54:49.825Z,3.87
2022-12-07T13:57:19.550Z,3.40
2022-12-07T13:59:48.809Z,3.57
2022-12-07T14:02:29.560Z,3.40
2022-12-07T14:05:12.755Z,3.20
2022-12-07T14:07:55.900Z,3.43
2022-12-07T14:10:31.970Z,3.20
2022-12-07T14:13:03.065Z,3.07
2022-12-07T14:15:36.129Z,3.20
2022-12-07T14:18:07.082Z,2.90
2022-12-07T14:20:40.177Z,3.20
2022-12-07T14:23:28.585Z,2.93
2022-12-07T14:26:09.091Z,3.43
2022-12-07T14:28:39.955Z,3.10
2022-12-07T14:31:22.628Z,10.90
2022-12-07T14:33:55.389Z,6.50
2022-12-07T14:36:24.225Z,10.20
2022-12-07T14:38:55.291Z,12.37
2022-12-07T14:41:43.004Z,25.37
2022-12-07T14:44:24.115Z,23.77
2022-12-07T14:49:45.337Z,6.47
2022-12-07T14:55:19.408Z,2.90
2022-12-07T14:57:48.116Z,2.67
2022-12-07T15:00:19.918Z,3.07
2022-12-07T15:02:50.339Z,3.13
2022-12-07T15:05:21.696Z,2.60
2022-12-07T15:07:52.565Z,2.50
2022-12-07T15:10:24.837Z,2.67
2022-12-07T15:12:54.239Z,2.33
2022-12-07T15:15:23.426Z,2.60
2022-12-07T15:17:52.253Z,2.57
2022-12-07T15:20:23.242Z,2.40
2022-12-07T15:22:51.968Z,2.63
2022-12-07T15:25:20.749Z,2.40
2022-12-07T15:27:49.814Z,2.50
2022-12-07T15:30:19.378Z,2.30
2022-12-07T15:32:52.206Z,2.00
2022-12-07T15:35:23.078Z,2.50
2022-12-07T15:37:51.792Z,2.40
2022-12-07T15:40:20.632Z,2.53
2022-12-07T15:42:49.684Z,3.33
2022-12-07T15:45:17.503Z,3.57
2022-12-07T15:48:26.254Z,4.20
2022-12-07T15:50:37.954Z,2.30
2022-12-07T15:53:06.734Z,2.37
2022-12-07T15:55:35.470Z,3.97
2022-12-07T15:58:04.211Z,5.13
2022-12-07T16:00:32.947Z,4.07
2022-12-07T16:03:01.815Z,7.80
2022-12-07T16:05:30.780Z,10.73
2022-12-07T16:08:01.141Z,19.23
2022-12-07T16:10:30.018Z,6.90
2022-12-07T16:12:58.763Z,5.03
2022-12-07T16:15:28.050Z,5.83
2022-12-07T16:17:57.075Z,4.97
2022-12-07T16:20:25.838Z,5.63
2022-12-07T16:22:55.849Z,4.20
2022-12-07T16:25:26.341Z,4.70
2022-12-07T16:27:55.635Z,3.87
2022-12-07T16:30:24.368Z,5.20
2022-12-07T16:32:56.755Z,4.27
2022-12-07T16:35:28.291Z,4.03
2022-12-07T16:37:57.115Z,4.53
2022-12-07T16:40:27.311Z,2.80
2022-12-07T16:42:57.444Z,2.40
2022-12-07T16:45:27.472Z,3.20
2022-12-07T16:47:59.877Z,2.63
2022-12-07T16:50:29.677Z,4.27
2022-12-07T16:52:58.403Z,2.70
2022-12-07T16:55:28.544Z,2.77
2022-12-07T16:57:57.729Z,3.30
2022-12-07T17:00:26.831Z,2.73
2022-12-07T17:02:56.430Z,3.07
2022-12-07T17:05:26.145Z,3.80
2022-12-07T17:07:55.327Z,3.53
2022-12-07T17:10:25.144Z,5.70
2022-12-07T17:12:55.758Z,4.23
2022-12-07T17:15:23.929Z,4.80
2022-12-07T17:17:57.044Z,4.77
2022-12-07T17:20:45.827Z,4.07
2022-12-07T17:23:15.230Z,5.10
2022-12-07T17:25:44.356Z,3.73
2022-12-07T17:28:14.863Z,4.13
2022-12-07T17:30:43.900Z,6.00
2022-12-07T17:33:13.927Z,4.93
2022-12-07T17:35:42.972Z,4.07
2022-12-07T17:38:11.780Z,3.80
2022-12-07T17:40:40.696Z,2.90
2022-12-07T17:43:09.680Z,3.10
2022-12-07T17:45:40.472Z,4.10
2022-12-07T17:48:09.330Z,3.50
2022-12-07T17:50:55.602Z,3.60
2022-12-07T17:53:24.441Z,3.83
2022-12-07T17:56:26.846Z,5.67
2022-12-07T17:58:44.863Z,5.40
2022-12-07T18:01:15.065Z,3.10
2022-12-07T18:03:44.443Z,5.17
2022-12-07T18:06:13.232Z,5.27
2022-12-07T18:08:41.989Z,3.30
2022-12-07T18:11:10.695Z,3.40
2022-12-07T18:13:39.525Z,3.40
2022-12-07T18:16:11.825Z,3.30
2022-12-07T18:18:45.364Z,2.50
2022-12-07T18:21:21.035Z,2.87
2022-12-07T18:23:53.113Z,3.07
2022-12-07T18:26:24.905Z,3.37
2022-12-07T18:28:54.367Z,3.33
2022-12-07T18:31:23.370Z,2.43
2022-12-07T18:33:56.161Z,2.10
2022-12-07T18:36:25.743Z,2.10
2022-12-07T18:38:54.488Z,1.80
2022-12-07T18:41:23.925Z,2.00
2022-12-07T18:43:52.780Z,2.00
2022-12-07T18:46:22.926Z,1.73
2022-12-07T18:48:53.190Z,2.40
2022-12-07T18:51:24.307Z,2.30
2022-12-07T18:53:57.145Z,2.60
2022-12-07T18:56:27.796Z,2.30
2022-12-07T18:59:16.230Z,2.10
2022-12-07T19:01:47.669Z,2.57
2022-12-07T19:04:18.602Z,2.50
2022-12-07T19:06:49.971Z,2.33
2022-12-07T19:09:20.874Z,2.13
2022-12-07T19:11:53.021Z,3.07
2022-12-07T19:14:30.471Z,3.50
2022-12-07T19:19:47.280Z,3.73
2022-12-07T19:22:20.425Z,3.70
2022-12-07T19:25:15.268Z,3.80
2022-12-07T19:27:44.463Z,3.73
2022-12-07T19:30:14.540Z,5.40
2022-12-07T19:32:46.379Z,4.90
2022-12-07T19:35:19.398Z,4.80
2022-12-07T19:37:48.487Z,5.40
2022-12-07T19:40:17.686Z,5.17
2022-12-07T19:42:46.491Z,5.43
2022-12-07T19:45:36.874Z,5.20
2022-12-07T19:48:08.880Z,4.70
2022-12-07T19:50:39.193Z,5.17
2022-12-07T19:53:08.282Z,6.07
2022-12-07T19:55:43.613Z,5.73
2022-12-07T19:58:12.851Z,5.47
2022-12-07T20:00:41.784Z,4.97
2022-12-07T20:03:10.628Z,4.93
2022-12-07T20:05:40.921Z,5.37
2022-12-07T20:08:14.382Z,4.90
2022-12-07T20:10:51.086Z,4.70
2022-12-07T20:13:32.330Z,4.27
2022-12-07T20:16:19.500Z,4.30
2022-12-07T20:18:57.199Z,4.50
2022-12-07T20:21:29.474Z,5.07
2022-12-07T20:24:01.877Z,3.60
2022-12-07T20:26:32.217Z,4.17
2022-12-07T20:29:07.753Z,3.73
2022-12-07T20:31:38.719Z,3.77
2022-12-07T20:34:07.581Z,3.83
2022-12-07T20:36:38.272Z,3.47
2022-12-07T20:39:08.582Z,3.47
2022-12-07T20:41:54.991Z,3.47
2022-12-07T20:44:23.884Z,3.53
2022-12-07T20:46:52.814Z,3.73
2022-12-07T20:49:21.888Z,7.70
2022-12-07T20:51:52.232Z,3.77
2022-12-07T20:54:21.163Z,3.60
2022-12-07T20:56:50.188Z,3.43
2022-12-07T20:59:19.189Z,3.50
2022-12-07T21:01:48.673Z,4.00
2022-12-07T21:04:18.386Z,3.87
2022-12-07T21:06:52.286Z,3.83
2022-12-07T21:09:26.803Z,3.30
2022-12-07T21:11:56.452Z,3.60
2022-12-07T21:14:25.403Z,3.77
2022-12-07T21:16:54.350Z,4.37
2022-12-07T21:19:25.082Z,3.87
2022-12-07T21:21:55.697Z,4.23
2022-12-07T21:24:24.861Z,3.90
2022-12-07T21:26:56.640Z,4.07
2022-12-07T21:29:42.668Z,3.83
2022-12-07T21:32:13.699Z,4.00
2022-12-07T21:34:42.773Z,4.03
2022-12-07T21:37:13.014Z,3.97
2022-12-07T21:39:42.323Z,4.47
2022-12-07T21:42:11.133Z,4.20
2022-12-07T21:44:40.122Z,4.00
2022-12-07T21:47:09.007Z,4.17
2022-12-07T21:49:39.250Z,3.87
2022-12-07T21:52:09.131Z,4.20
2022-12-07T21:54:40.563Z,3.80
2022-12-07T21:57:10.405Z,4.30
2022-12-07T21:59:40.163Z,4.03
2022-12-07T22:02:15.782Z,3.97
2022-12-07T22:04:44.975Z,4.03
2022-12-07T22:07:13.707Z,4.43
2022-12-07T22:09:44.084Z,3.90
2022-12-07T22:12:12.856Z,5.90
2022-12-07T22:14:59.297Z,4.20
2022-12-07T22:17:29.935Z,4.20
2022-12-07T22:20:02.002Z,4.37
2022-12-07T22:22:30.740Z,3.97
2022-12-07T22:25:01.040Z,4.57
2022-12-07T22:27:30.260Z,4.13
2022-12-07T22:30:02.595Z,4.17
2022-12-07T22:32:48.609Z,4.47
2022-12-07T22:35:18.667Z,4.40
2022-12-07T22:37:54.993Z,4.30
2022-12-07T22:40:26.672Z,4.00
2022-12-07T22:42:55.462Z,3.97
2022-12-07T22:45:24.345Z,4.20
2022-12-07T22:47:53.087Z,3.87
2022-12-07T22:50:22.283Z,4.07
2022-12-07T22:52:51.285Z,3.90
2022-12-07T22:55:20.177Z,4.00
2022-12-07T22:57:50.415Z,4.17
2022-12-07T23:00:19.910Z,3.93
2022-12-07T23:02:50.688Z,3.50
2022-12-07T23:05:19.936Z,3.23
2022-12-07T23:07:49.890Z,3.50
2022-12-07T23:10:19.485Z,3.60
2022-12-07T23:13:06.361Z,3.70
2022-12-07T23:15:36.589Z,3.40
2022-12-07T23:18:08.617Z,3.20
2022-12-07T23:20:37.322Z,3.60
2022-12-07T23:23:06.021Z,3.40
2022-12-07T23:25:35.422Z,3.63
2022-12-07T23:28:06.025Z,3.57
2022-12-07T23:30:34.762Z,3.73
2022-12-07T23:33:03.737Z,3.77
2022-12-07T23:35:35.929Z,3.67
2022-12-07T23:38:05.943Z,4.30
2022-12-07T23:40:34.989Z,3.93
2022-12-07T23:43:05.166Z,3.70
2022-12-07T23:45:34.030Z,4.10
2022-12-07T23:48:03.000Z,3.93
2022-12-07T23:50:31.729Z,3.80
2022-12-07T23:53:00.468Z,3.90
2022-12-07T23:55:29.231Z,3.70
2022-12-07T23:57:57.959Z,4.23
